sensor_id;sensor_type;location;lat;lon;timestamp;temperature;humidity
44823;DHT22;51097;51.984;5.650;2023-06-22T00:01:52;22.70;99.90
44823;DHT22;51097;51.984;5.650;2023-06-22T00:04:18;22.60;99.90
44823;DHT22;51097;51.984;5.650;2023-06-22T00:06:43;22.60;99.90
44823;DHT22;51097;51.984;5.650;2023-06-22T00:09:09;22.60;99.90
44823;DHT22;51097;51.984;5.650;2023-06-22T00:11:36;22.60;99.90
44823;DHT22;51097;51.984;5.650;2023-06-22T00:14:02;22.50;99.90
44823;DHT22;51097;51.984;5.650;2023-06-22T00:16:28;22.50;99.90
44823;DHT22;51097;51.984;5.650;2023-06-22T00:18:53;22.50;99.90
44823;DHT22;51097;51.984;5.650;2023-06-22T00:21:19;22.50;99.90
44823;DHT22;51097;51.984;5.650;2023-06-22T00:23:47;22.40;99.90
44823;DHT22;51097;51.984;5.650;2023-06-22T00:26:13;22.20;99.90
44823;DHT22;51097;51.984;5.650;2023-06-22T00:28:39;22.30;99.90
44823;DHT22;51097;51.984;5.650;2023-06-22T00:31:05;22.20;99.90
44823;DHT22;51097;51.984;5.650;2023-06-22T00:33:30;22.20;99.90
44823;DHT22;51097;51.984;5.650;2023-06-22T00:35:56;22.10;99.90
44823;DHT22;51097;51.984;5.650;2023-06-22T00:38:22;22.10;99.90
44823;DHT22;51097;51.984;5.650;2023-06-22T00:40:48;22.10;99.90
44823;DHT22;51097;51.984;5.650;2023-06-22T00:43:13;22.00;99.90
44823;DHT22;51097;51.984;5.650;2023-06-22T00:45:39;22.10;99.90
44823;DHT22;51097;51.984;5.650;2023-06-22T00:48:05;22.00;99.90
44823;DHT22;51097;51.984;5.650;2023-06-22T00:50:33;22.00;99.90
44823;DHT22;51097;51.984;5.650;2023-06-22T00:53:06;21.90;99.90
44823;DHT22;51097;51.984;5.650;2023-06-22T00:55:37;21.90;99.90
44823;DHT22;51097;51.984;5.650;2023-06-22T00:58:05;21.80;99.90
44823;DHT22;51097;51.984;5.650;2023-06-22T01:00:33;21.90;99.90
44823;DHT22;51097;51.984;5.650;2023-06-22T01:02:59;21.70;99.90
44823;DHT22;51097;51.984;5.650;2023-06-22T01:05:24;21.70;99.90
44823;DHT22;51097;51.984;5.650;2023-06-22T01:08:08;21.60;99.90
44823;DHT22;51097;51.984;5.650;2023-06-22T01:13:41;21.60;99.90
44823;DHT22;51097;51.984;5.650;2023-06-22T01:16:50;21.60;99.90
44823;DHT22;51097;51.984;5.650;2023-06-22T01:19:05;21.60;99.90
44823;DHT22;51097;51.984;5.650;2023-06-22T01:21:35;21.40;99.90
44823;DHT22;51097;51.984;5.650;2023-06-22T01:24:27;21.30;99.90
44823;DHT22;51097;51.984;5.650;2023-06-22T01:27:11;21.40;99.90
44823;DHT22;51097;51.984;5.650;2023-06-22T01:29:39;21.40;99.90
44823;DHT22;51097;51.984;5.650;2023-06-22T01:32:06;21.20;99.90
44823;DHT22;51097;51.984;5.650;2023-06-22T01:34:33;21.30;99.90
44823;DHT22;51097;51.984;5.650;2023-06-22T01:37:00;21.20;99.90
44823;DHT22;51097;51.984;5.650;2023-06-22T01:39:26;21.20;99.90
44823;DHT22;51097;51.984;5.650;2023-06-22T01:41:54;21.20;99.90
44823;DHT22;51097;51.984;5.650;2023-06-22T01:44:20;21.10;99.90
44823;DHT22;51097;51.984;5.650;2023-06-22T01:46:48;21.10;99.90
44823;DHT22;51097;51.984;5.650;2023-06-22T01:49:15;21.10;99.90
44823;DHT22;51097;51.984;5.650;2023-06-22T01:51:40;21.00;99.90
44823;DHT22;51097;51.984;5.650;2023-06-22T01:54:06;21.00;99.90
44823;DHT22;51097;51.984;5.650;2023-06-22T01:56:33;21.00;99.90
44823;DHT22;51097;51.984;5.650;2023-06-22T01:59:17;20.90;99.90
44823;DHT22;51097;51.984;5.650;2023-06-22T02:02:01;20.90;99.90
44823;DHT22;51097;51.984;5.650;2023-06-22T02:04:56;20.90;99.90
44823;DHT22;51097;51.984;5.650;2023-06-22T02:07:27;20.80;99.90
44823;DHT22;51097;51.984;5.650;2023-06-22T02:09:55;20.80;99.90
44823;DHT22;51097;51.984;5.650;2023-06-22T02:12:23;20.70;99.90
44823;DHT22;51097;51.984;5.650;2023-06-22T02:14:51;20.70;99.90
44823;DHT22;51097;51.984;5.650;2023-06-22T02:17:17;20.70;99.90
44823;DHT22;51097;51.984;5.650;2023-06-22T02:19:43;20.70;99.90
44823;DHT22;51097;51.984;5.650;2023-06-22T02:22:09;20.60;99.90
44823;DHT22;51097;51.984;5.650;2023-06-22T02:24:35;20.60;99.90
44823;DHT22;51097;51.984;5.650;2023-06-22T02:27:02;20.70;99.90
44823;DHT22;51097;51.984;5.650;2023-06-22T02:29:28;20.60;99.90
44823;DHT22;51097;51.984;5.650;2023-06-22T02:31:54;20.60;99.90
44823;DHT22;51097;51.984;5.650;2023-06-22T02:34:21;20.70;99.90
44823;DHT22;51097;51.984;5.650;2023-06-22T02:36:48;20.60;99.90
44823;DHT22;51097;51.984;5.650;2023-06-22T02:39:21;20.50;99.90
44823;DHT22;51097;51.984;5.650;2023-06-22T02:41:51;20.50;99.90
44823;DHT22;51097;51.984;5.650;2023-06-22T02:44:18;20.40;99.90
44823;DHT22;51097;51.984;5.650;2023-06-22T02:46:44;20.50;99.90
44823;DHT22;51097;51.984;5.650;2023-06-22T02:49:10;20.40;99.90
44823;DHT22;51097;51.984;5.650;2023-06-22T02:51:37;20.40;99.90
44823;DHT22;51097;51.984;5.650;2023-06-22T02:54:07;20.40;99.90
44823;DHT22;51097;51.984;5.650;2023-06-22T02:56:33;20.30;99.90
44823;DHT22;51097;51.984;5.650;2023-06-22T02:58:58;20.30;99.90
44823;DHT22;51097;51.984;5.650;2023-06-22T03:01:27;20.30;99.90
44823;DHT22;51097;51.984;5.650;2023-06-22T03:03:53;20.40;99.90
44823;DHT22;51097;51.984;5.650;2023-06-22T03:06:20;20.30;99.90
44823;DHT22;51097;51.984;5.650;2023-06-22T03:08:52;20.40;99.90
44823;DHT22;51097;51.984;5.650;2023-06-22T03:11:17;20.10;99.90
44823;DHT22;51097;51.984;5.650;2023-06-22T03:13:43;20.20;99.90
44823;DHT22;51097;51.984;5.650;2023-06-22T03:16:09;20.20;99.90
44823;DHT22;51097;51.984;5.650;2023-06-22T03:18:34;20.10;99.90
44823;DHT22;51097;51.984;5.650;2023-06-22T03:21:00;20.20;99.90
44823;DHT22;51097;51.984;5.650;2023-06-22T03:23:27;20.10;99.90
44823;DHT22;51097;51.984;5.650;2023-06-22T03:25:53;20.10;99.90
44823;DHT22;51097;51.984;5.650;2023-06-22T03:28:21;20.10;99.90
44823;DHT22;51097;51.984;5.650;2023-06-22T03:30:47;20.10;99.90
44823;DHT22;51097;51.984;5.650;2023-06-22T03:33:12;20.10;99.90
44823;DHT22;51097;51.984;5.650;2023-06-22T03:35:38;20.10;99.90
44823;DHT22;51097;51.984;5.650;2023-06-22T03:38:03;20.00;99.90
44823;DHT22;51097;51.984;5.650;2023-06-22T03:40:29;20.00;99.90
44823;DHT22;51097;51.984;5.650;2023-06-22T03:42:55;20.10;99.90
44823;DHT22;51097;51.984;5.650;2023-06-22T03:45:21;20.00;99.90
44823;DHT22;51097;51.984;5.650;2023-06-22T03:47:46;19.90;99.90
44823;DHT22;51097;51.984;5.650;2023-06-22T03:50:12;19.90;99.90
44823;DHT22;51097;51.984;5.650;2023-06-22T03:52:39;19.90;99.90
44823;DHT22;51097;51.984;5.650;2023-06-22T03:55:06;19.90;99.90
44823;DHT22;51097;51.984;5.650;2023-06-22T03:57:32;19.90;99.90
44823;DHT22;51097;51.984;5.650;2023-06-22T03:59:57;19.80;99.90
44823;DHT22;51097;51.984;5.650;2023-06-22T04:02:23;19.90;99.90
44823;DHT22;51097;51.984;5.650;2023-06-22T04:04:49;19.90;99.90
44823;DHT22;51097;51.984;5.650;2023-06-22T04:07:14;19.90;99.90
44823;DHT22;51097;51.984;5.650;2023-06-22T04:09:40;19.80;99.90
44823;DHT22;51097;51.984;5.650;2023-06-22T04:12:06;19.90;99.90
44823;DHT22;51097;51.984;5.650;2023-06-22T04:14:32;19.80;99.90
44823;DHT22;51097;51.984;5.650;2023-06-22T04:16:58;19.80;99.90
44823;DHT22;51097;51.984;5.650;2023-06-22T04:19:23;19.80;99.90
44823;DHT22;51097;51.984;5.650;2023-06-22T04:21:49;19.90;99.90
44823;DHT22;51097;51.984;5.650;2023-06-22T04:24:15;19.80;99.90
44823;DHT22;51097;51.984;5.650;2023-06-22T04:26:41;19.90;99.90
44823;DHT22;51097;51.984;5.650;2023-06-22T04:29:07;19.90;99.90
44823;DHT22;51097;51.984;5.650;2023-06-22T04:31:34;19.90;99.90
44823;DHT22;51097;51.984;5.650;2023-06-22T04:34:07;19.90;99.90
44823;DHT22;51097;51.984;5.650;2023-06-22T04:36:38;20.00;99.90
44823;DHT22;51097;51.984;5.650;2023-06-22T04:39:10;19.90;99.90
44823;DHT22;51097;51.984;5.650;2023-06-22T04:41:40;20.00;99.90
44823;DHT22;51097;51.984;5.650;2023-06-22T04:46:38;20.00;99.90
44823;DHT22;51097;51.984;5.650;2023-06-22T04:49:06;20.10;99.90
44823;DHT22;51097;51.984;5.650;2023-06-22T04:51:32;20.10;99.90
44823;DHT22;51097;51.984;5.650;2023-06-22T04:53:57;20.20;99.90
44823;DHT22;51097;51.984;5.650;2023-06-22T04:56:26;20.20;99.90
44823;DHT22;51097;51.984;5.650;2023-06-22T04:58:53;20.20;99.90
44823;DHT22;51097;51.984;5.650;2023-06-22T05:01:23;20.30;99.90
44823;DHT22;51097;51.984;5.650;2023-06-22T05:03:49;20.50;99.90
44823;DHT22;51097;51.984;5.650;2023-06-22T05:06:14;20.50;99.90
44823;DHT22;51097;51.984;5.650;2023-06-22T05:08:40;20.50;99.90
44823;DHT22;51097;51.984;5.650;2023-06-22T05:11:06;20.70;99.90
44823;DHT22;51097;51.984;5.650;2023-06-22T05:13:32;20.80;99.90
44823;DHT22;51097;51.984;5.650;2023-06-22T05:15:58;20.80;99.90
44823;DHT22;51097;51.984;5.650;2023-06-22T05:18:30;20.90;99.90
44823;DHT22;51097;51.984;5.650;2023-06-22T05:20:56;20.90;99.90
44823;DHT22;51097;51.984;5.650;2023-06-22T05:23:21;21.00;99.90
44823;DHT22;51097;51.984;5.650;2023-06-22T05:25:47;21.10;99.90
44823;DHT22;51097;51.984;5.650;2023-06-22T05:28:12;21.30;99.90
44823;DHT22;51097;51.984;5.650;2023-06-22T05:30:39;21.20;99.90
44823;DHT22;51097;51.984;5.650;2023-06-22T05:33:04;21.40;99.90
44823;DHT22;51097;51.984;5.650;2023-06-22T05:35:31;21.50;99.90
44823;DHT22;51097;51.984;5.650;2023-06-22T05:37:56;21.60;99.90
44823;DHT22;51097;51.984;5.650;2023-06-22T05:40:22;21.70;99.90
44823;DHT22;51097;51.984;5.650;2023-06-22T05:42:47;21.80;99.90
44823;DHT22;51097;51.984;5.650;2023-06-22T05:45:13;21.90;99.90
44823;DHT22;51097;51.984;5.650;2023-06-22T05:47:39;22.00;99.90
44823;DHT22;51097;51.984;5.650;2023-06-22T05:50:05;22.10;99.90
44823;DHT22;51097;51.984;5.650;2023-06-22T05:52:33;22.20;99.90
44823;DHT22;51097;51.984;5.650;2023-06-22T05:54:59;22.20;99.90
44823;DHT22;51097;51.984;5.650;2023-06-22T05:57:24;22.40;99.90
44823;DHT22;51097;51.984;5.650;2023-06-22T05:59:50;22.40;99.90
44823;DHT22;51097;51.984;5.650;2023-06-22T06:02:17;22.60;99.90
44823;DHT22;51097;51.984;5.650;2023-06-22T06:04:42;22.70;99.90
44823;DHT22;51097;51.984;5.650;2023-06-22T06:07:08;22.80;99.90
44823;DHT22;51097;51.984;5.650;2023-06-22T06:09:33;22.90;99.90
44823;DHT22;51097;51.984;5.650;2023-06-22T06:11:59;23.00;99.90
44823;DHT22;51097;51.984;5.650;2023-06-22T06:14:24;23.10;99.90
44823;DHT22;51097;51.984;5.650;2023-06-22T06:16:50;23.30;99.90
44823;DHT22;51097;51.984;5.650;2023-06-22T06:19:15;23.40;99.90
44823;DHT22;51097;51.984;5.650;2023-06-22T06:21:41;23.40;99.90
44823;DHT22;51097;51.984;5.650;2023-06-22T06:24:07;23.60;99.90
44823;DHT22;51097;51.984;5.650;2023-06-22T06:26:32;23.70;99.90
44823;DHT22;51097;51.984;5.650;2023-06-22T06:28:59;23.80;99.90
44823;DHT22;51097;51.984;5.650;2023-06-22T06:31:25;23.90;99.90
44823;DHT22;51097;51.984;5.650;2023-06-22T06:33:54;24.10;99.90
44823;DHT22;51097;51.984;5.650;2023-06-22T06:36:20;24.10;99.90
44823;DHT22;51097;51.984;5.650;2023-06-22T06:38:45;24.30;99.90
44823;DHT22;51097;51.984;5.650;2023-06-22T06:41:13;24.40;99.90
44823;DHT22;51097;51.984;5.650;2023-06-22T06:43:39;24.50;99.90
44823;DHT22;51097;51.984;5.650;2023-06-22T06:46:04;24.70;99.90
44823;DHT22;51097;51.984;5.650;2023-06-22T06:48:30;24.80;99.90
44823;DHT22;51097;51.984;5.650;2023-06-22T06:50:56;24.80;99.90
44823;DHT22;51097;51.984;5.650;2023-06-22T06:53:21;25.00;99.90
44823;DHT22;51097;51.984;5.650;2023-06-22T06:55:47;25.30;99.90
44823;DHT22;51097;51.984;5.650;2023-06-22T06:58:12;25.30;99.90
44823;DHT22;51097;51.984;5.650;2023-06-22T07:00:39;25.50;99.90
44823;DHT22;51097;51.984;5.650;2023-06-22T07:03:04;25.60;99.90
44823;DHT22;51097;51.984;5.650;2023-06-22T07:05:30;25.70;99.90
44823;DHT22;51097;51.984;5.650;2023-06-22T07:07:56;25.90;99.90
44823;DHT22;51097;51.984;5.650;2023-06-22T07:10:21;26.10;99.90
44823;DHT22;51097;51.984;5.650;2023-06-22T07:12:47;26.30;99.90
44823;DHT22;51097;51.984;5.650;2023-06-22T07:15:13;26.50;99.90
44823;DHT22;51097;51.984;5.650;2023-06-22T07:17:39;26.60;99.90
44823;DHT22;51097;51.984;5.650;2023-06-22T07:20:07;26.90;99.90
44823;DHT22;51097;51.984;5.650;2023-06-22T07:22:37;27.10;99.90
44823;DHT22;51097;51.984;5.650;2023-06-22T07:25:04;27.20;99.90
44823;DHT22;51097;51.984;5.650;2023-06-22T07:27:38;27.40;99.90
44823;DHT22;51097;51.984;5.650;2023-06-22T07:30:06;27.60;99.90
44823;DHT22;51097;51.984;5.650;2023-06-22T07:32:32;27.90;99.90
44823;DHT22;51097;51.984;5.650;2023-06-22T07:34:57;28.10;99.90
44823;DHT22;51097;51.984;5.650;2023-06-22T07:37:23;28.40;99.90
44823;DHT22;51097;51.984;5.650;2023-06-22T07:39:49;28.50;99.90
44823;DHT22;51097;51.984;5.650;2023-06-22T07:42:19;28.80;99.90
44823;DHT22;51097;51.984;5.650;2023-06-22T07:44:44;28.90;99.90
44823;DHT22;51097;51.984;5.650;2023-06-22T07:47:10;29.20;99.90
44823;DHT22;51097;51.984;5.650;2023-06-22T07:49:35;29.30;99.90
44823;DHT22;51097;51.984;5.650;2023-06-22T07:52:01;29.50;99.90
44823;DHT22;51097;51.984;5.650;2023-06-22T07:54:27;29.60;99.90
44823;DHT22;51097;51.984;5.650;2023-06-22T07:56:53;29.80;99.90
44823;DHT22;51097;51.984;5.650;2023-06-22T07:59:18;30.10;99.90
44823;DHT22;51097;51.984;5.650;2023-06-22T08:01:44;30.10;99.80
44823;DHT22;51097;51.984;5.650;2023-06-22T08:04:09;30.30;99.70
44823;DHT22;51097;51.984;5.650;2023-06-22T08:06:35;30.40;99.50
44823;DHT22;51097;51.984;5.650;2023-06-22T08:09:01;30.60;98.70
44823;DHT22;51097;51.984;5.650;2023-06-22T08:11:26;30.80;98.70
44823;DHT22;51097;51.984;5.650;2023-06-22T08:13:52;30.90;98.50
44823;DHT22;51097;51.984;5.650;2023-06-22T08:16:18;31.00;98.40
44823;DHT22;51097;51.984;5.650;2023-06-22T08:18:43;31.00;97.70
44823;DHT22;51097;51.984;5.650;2023-06-22T08:21:09;31.10;97.20
44823;DHT22;51097;51.984;5.650;2023-06-22T08:23:36;31.10;96.60
44823;DHT22;51097;51.984;5.650;2023-06-22T08:26:01;31.10;96.80
44823;DHT22;51097;51.984;5.650;2023-06-22T08:28:27;31.20;96.60
44823;DHT22;51097;51.984;5.650;2023-06-22T08:30:53;31.20;97.20
44823;DHT22;51097;51.984;5.650;2023-06-22T08:33:18;31.30;96.80
44823;DHT22;51097;51.984;5.650;2023-06-22T08:35:44;31.40;96.10
44823;DHT22;51097;51.984;5.650;2023-06-22T08:38:09;31.50;96.30
44823;DHT22;51097;51.984;5.650;2023-06-22T08:40:36;31.50;96.90
44823;DHT22;51097;51.984;5.650;2023-06-22T08:43:01;31.60;96.50
44823;DHT22;51097;51.984;5.650;2023-06-22T08:45:27;31.70;95.90
44823;DHT22;51097;51.984;5.650;2023-06-22T08:47:52;31.80;95.30
44823;DHT22;51097;51.984;5.650;2023-06-22T08:50:18;31.70;95.40
44823;DHT22;51097;51.984;5.650;2023-06-22T08:52:44;31.70;94.70
44823;DHT22;51097;51.984;5.650;2023-06-22T08:55:11;31.80;95.40
44823;DHT22;51097;51.984;5.650;2023-06-22T08:57:36;31.80;95.10
44823;DHT22;51097;51.984;5.650;2023-06-22T09:00:06;31.90;94.90
44823;DHT22;51097;51.984;5.650;2023-06-22T09:02:40;31.80;94.70
44823;DHT22;51097;51.984;5.650;2023-06-22T09:05:06;31.90;94.50
44823;DHT22;51097;51.984;5.650;2023-06-22T09:07:31;32.00;95.00
44823;DHT22;51097;51.984;5.650;2023-06-22T09:09:57;32.00;95.20
44823;DHT22;51097;51.984;5.650;2023-06-22T09:12:23;32.20;94.80
44823;DHT22;51097;51.984;5.650;2023-06-22T09:14:51;32.20;95.40
44823;DHT22;51097;51.984;5.650;2023-06-22T09:17:17;32.40;93.20
44823;DHT22;51097;51.984;5.650;2023-06-22T09:19:42;32.50;93.90
44823;DHT22;51097;51.984;5.650;2023-06-22T09:22:08;32.60;92.30
44823;DHT22;51097;51.984;5.650;2023-06-22T09:24:34;32.70;92.30
44823;DHT22;51097;51.984;5.650;2023-06-22T09:26:59;32.70;92.80
44823;DHT22;51097;51.984;5.650;2023-06-22T09:29:25;32.90;92.00
44823;DHT22;51097;51.984;5.650;2023-06-22T09:31:50;32.90;91.80
44823;DHT22;51097;51.984;5.650;2023-06-22T09:34:16;33.00;91.40
44823;DHT22;51097;51.984;5.650;2023-06-22T09:36:48;33.20;91.40
44823;DHT22;51097;51.984;5.650;2023-06-22T09:39:14;33.30;90.40
44823;DHT22;51097;51.984;5.650;2023-06-22T09:41:39;33.20;88.80
44823;DHT22;51097;51.984;5.650;2023-06-22T09:44:05;33.20;89.00
44823;DHT22;51097;51.984;5.650;2023-06-22T09:46:30;33.20;89.00
44823;DHT22;51097;51.984;5.650;2023-06-22T09:48:56;33.20;88.90
44823;DHT22;51097;51.984;5.650;2023-06-22T09:51:22;33.20;88.10
44823;DHT22;51097;51.984;5.650;2023-06-22T09:53:49;33.10;86.30
44823;DHT22;51097;51.984;5.650;2023-06-22T09:56:15;33.00;88.30
44823;DHT22;51097;51.984;5.650;2023-06-22T09:58:42;33.00;88.40
44823;DHT22;51097;51.984;5.650;2023-06-22T10:01:08;32.90;86.40
44823;DHT22;51097;51.984;5.650;2023-06-22T10:03:34;32.90;88.20
44823;DHT22;51097;51.984;5.650;2023-06-22T10:05:59;32.80;87.30
44823;DHT22;51097;51.984;5.650;2023-06-22T10:08:25;32.90;89.00
44823;DHT22;51097;51.984;5.650;2023-06-22T10:10:50;32.90;87.60
44823;DHT22;51097;51.984;5.650;2023-06-22T10:13:16;32.80;88.70
44823;DHT22;51097;51.984;5.650;2023-06-22T10:15:42;32.70;89.30
44823;DHT22;51097;51.984;5.650;2023-06-22T10:18:08;32.60;89.10
44823;DHT22;51097;51.984;5.650;2023-06-22T10:20:33;32.60;88.30
44823;DHT22;51097;51.984;5.650;2023-06-22T10:22:59;32.50;88.00
44823;DHT22;51097;51.984;5.650;2023-06-22T10:25:25;32.50;88.80
44823;DHT22;51097;51.984;5.650;2023-06-22T10:27:50;32.40;88.00
44823;DHT22;51097;51.984;5.650;2023-06-22T10:30:16;32.40;88.60
44823;DHT22;51097;51.984;5.650;2023-06-22T10:32:42;32.40;90.50
44823;DHT22;51097;51.984;5.650;2023-06-22T10:35:09;32.30;88.40
44823;DHT22;51097;51.984;5.650;2023-06-22T10:37:36;32.20;90.20
44823;DHT22;51097;51.984;5.650;2023-06-22T10:40:02;32.20;90.80
44823;DHT22;51097;51.984;5.650;2023-06-22T10:42:29;32.20;90.30
44823;DHT22;51097;51.984;5.650;2023-06-22T10:44:55;32.10;91.00
44823;DHT22;51097;51.984;5.650;2023-06-22T10:47:20;32.10;90.50
44823;DHT22;51097;51.984;5.650;2023-06-22T10:49:46;32.10;90.50
44823;DHT22;51097;51.984;5.650;2023-06-22T10:52:11;32.00;90.60
44823;DHT22;51097;51.984;5.650;2023-06-22T10:54:37;32.00;90.40
44823;DHT22;51097;51.984;5.650;2023-06-22T10:57:04;32.00;90.40
44823;DHT22;51097;51.984;5.650;2023-06-22T10:59:29;31.90;90.60
44823;DHT22;51097;51.984;5.650;2023-06-22T11:01:55;31.90;90.50
44823;DHT22;51097;51.984;5.650;2023-06-22T11:04:21;31.90;91.00
44823;DHT22;51097;51.984;5.650;2023-06-22T11:06:48;31.90;90.80
44823;DHT22;51097;51.984;5.650;2023-06-22T11:09:14;31.90;90.90
44823;DHT22;51097;51.984;5.650;2023-06-22T11:11:44;31.90;91.50
44823;DHT22;51097;51.984;5.650;2023-06-22T11:14:10;31.90;91.90
44823;DHT22;51097;51.984;5.650;2023-06-22T11:16:36;31.90;92.30
44823;DHT22;51097;51.984;5.650;2023-06-22T11:19:01;31.90;92.40
44823;DHT22;51097;51.984;5.650;2023-06-22T11:21:28;31.90;91.90
44823;DHT22;51097;51.984;5.650;2023-06-22T11:23:54;31.90;92.10
44823;DHT22;51097;51.984;5.650;2023-06-22T11:26:19;31.90;91.60
44823;DHT22;51097;51.984;5.650;2023-06-22T11:28:46;31.80;91.70
44823;DHT22;51097;51.984;5.650;2023-06-22T11:31:12;31.80;92.00
44823;DHT22;51097;51.984;5.650;2023-06-22T11:33:37;31.70;92.40
44823;DHT22;51097;51.984;5.650;2023-06-22T11:36:03;31.70;92.60
44823;DHT22;51097;51.984;5.650;2023-06-22T11:38:29;31.60;92.60
44823;DHT22;51097;51.984;5.650;2023-06-22T11:40:57;31.60;93.10
44823;DHT22;51097;51.984;5.650;2023-06-22T11:43:23;31.50;93.30
44823;DHT22;51097;51.984;5.650;2023-06-22T11:45:48;31.40;94.00
44823;DHT22;51097;51.984;5.650;2023-06-22T11:48:14;31.40;93.80
44823;DHT22;51097;51.984;5.650;2023-06-22T11:50:40;31.30;94.80
44823;DHT22;51097;51.984;5.650;2023-06-22T11:53:05;31.20;94.30
44823;DHT22;51097;51.984;5.650;2023-06-22T11:55:31;31.10;94.20
44823;DHT22;51097;51.984;5.650;2023-06-22T11:57:57;31.00;94.40
44823;DHT22;51097;51.984;5.650;2023-06-22T12:00:29;30.90;95.30
44823;DHT22;51097;51.984;5.650;2023-06-22T12:02:55;30.80;96.10
44823;DHT22;51097;51.984;5.650;2023-06-22T12:05:21;30.80;96.40
44823;DHT22;51097;51.984;5.650;2023-06-22T12:07:48;30.80;96.60
44823;DHT22;51097;51.984;5.650;2023-06-22T12:10:14;30.70;97.20
44823;DHT22;51097;51.984;5.650;2023-06-22T12:12:40;30.70;97.50
44823;DHT22;51097;51.984;5.650;2023-06-22T12:15:05;30.50;97.70
44823;DHT22;51097;51.984;5.650;2023-06-22T12:17:31;30.40;98.10
44823;DHT22;51097;51.984;5.650;2023-06-22T12:19:58;30.30;98.40
44823;DHT22;51097;51.984;5.650;2023-06-22T12:22:24;30.10;99.00
44823;DHT22;51097;51.984;5.650;2023-06-22T12:24:49;30.00;99.90
44823;DHT22;51097;51.984;5.650;2023-06-22T12:27:16;29.90;99.90
44823;DHT22;51097;51.984;5.650;2023-06-22T12:29:45;29.90;99.90
44823;DHT22;51097;51.984;5.650;2023-06-22T12:32:10;29.70;99.90
44823;DHT22;51097;51.984;5.650;2023-06-22T12:34:38;29.50;99.90
44823;DHT22;51097;51.984;5.650;2023-06-22T12:37:04;29.60;99.90
44823;DHT22;51097;51.984;5.650;2023-06-22T12:39:31;29.40;99.90
44823;DHT22;51097;51.984;5.650;2023-06-22T12:41:57;29.30;99.90
44823;DHT22;51097;51.984;5.650;2023-06-22T12:44:22;29.20;99.90
44823;DHT22;51097;51.984;5.650;2023-06-22T12:46:48;29.20;99.90
44823;DHT22;51097;51.984;5.650;2023-06-22T12:49:13;29.00;99.90
44823;DHT22;51097;51.984;5.650;2023-06-22T12:51:40;28.90;99.90
44823;DHT22;51097;51.984;5.650;2023-06-22T12:54:07;28.80;99.90
44823;DHT22;51097;51.984;5.650;2023-06-22T12:56:33;28.70;99.90
44823;DHT22;51097;51.984;5.650;2023-06-22T12:58:58;28.60;99.90
44823;DHT22;51097;51.984;5.650;2023-06-22T13:01:27;28.60;99.90
44823;DHT22;51097;51.984;5.650;2023-06-22T13:03:53;28.50;99.90
44823;DHT22;51097;51.984;5.650;2023-06-22T13:06:19;28.30;99.90
44823;DHT22;51097;51.984;5.650;2023-06-22T13:08:44;28.20;99.90
44823;DHT22;51097;51.984;5.650;2023-06-22T13:11:10;28.20;99.90
44823;DHT22;51097;51.984;5.650;2023-06-22T13:13:35;28.10;99.90
44823;DHT22;51097;51.984;5.650;2023-06-22T13:16:01;28.10;99.90
44823;DHT22;51097;51.984;5.650;2023-06-22T13:18:27;28.00;99.90
44823;DHT22;51097;51.984;5.650;2023-06-22T13:20:52;28.00;99.90
44823;DHT22;51097;51.984;5.650;2023-06-22T13:23:20;28.00;99.90
44823;DHT22;51097;51.984;5.650;2023-06-22T13:25:46;28.00;99.90
44823;DHT22;51097;51.984;5.650;2023-06-22T13:28:12;28.00;99.90
44823;DHT22;51097;51.984;5.650;2023-06-22T13:30:40;27.90;99.90
44823;DHT22;51097;51.984;5.650;2023-06-22T13:33:05;27.80;99.90
44823;DHT22;51097;51.984;5.650;2023-06-22T13:35:31;27.80;99.90
44823;DHT22;51097;51.984;5.650;2023-06-22T13:37:56;27.70;99.90
44823;DHT22;51097;51.984;5.650;2023-06-22T13:40:22;27.70;99.90
44823;DHT22;51097;51.984;5.650;2023-06-22T13:42:48;27.70;99.90
44823;DHT22;51097;51.984;5.650;2023-06-22T13:45:13;27.50;99.90
44823;DHT22;51097;51.984;5.650;2023-06-22T13:47:39;27.60;99.90
44823;DHT22;51097;51.984;5.650;2023-06-22T13:50:05;27.50;99.90
44823;DHT22;51097;51.984;5.650;2023-06-22T13:52:31;27.40;99.90
44823;DHT22;51097;51.984;5.650;2023-06-22T13:54:56;27.30;99.90
44823;DHT22;51097;51.984;5.650;2023-06-22T13:57:23;27.30;99.90
44823;DHT22;51097;51.984;5.650;2023-06-22T13:59:49;27.30;99.90
44823;DHT22;51097;51.984;5.650;2023-06-22T14:02:14;27.20;99.90
44823;DHT22;51097;51.984;5.650;2023-06-22T14:04:40;27.20;99.90
44823;DHT22;51097;51.984;5.650;2023-06-22T14:07:06;27.10;99.90
44823;DHT22;51097;51.984;5.650;2023-06-22T14:09:31;27.00;99.90
44823;DHT22;51097;51.984;5.650;2023-06-22T14:11:57;27.00;99.90
44823;DHT22;51097;51.984;5.650;2023-06-22T14:14:22;26.90;99.90
44823;DHT22;51097;51.984;5.650;2023-06-22T14:16:48;26.90;99.90
44823;DHT22;51097;51.984;5.650;2023-06-22T14:19:17;26.90;99.90
44823;DHT22;51097;51.984;5.650;2023-06-22T14:21:43;26.90;99.90
44823;DHT22;51097;51.984;5.650;2023-06-22T14:24:08;26.80;99.90
44823;DHT22;51097;51.984;5.650;2023-06-22T14:26:34;26.90;99.90
44823;DHT22;51097;51.984;5.650;2023-06-22T14:28:59;26.70;99.90
44823;DHT22;51097;51.984;5.650;2023-06-22T14:31:25;26.70;99.90
44823;DHT22;51097;51.984;5.650;2023-06-22T14:33:50;26.60;99.90
44823;DHT22;51097;51.984;5.650;2023-06-22T14:36:17;26.50;99.90
44823;DHT22;51097;51.984;5.650;2023-06-22T14:38:45;26.50;99.90
44823;DHT22;51097;51.984;5.650;2023-06-22T14:41:11;26.40;99.90
44823;DHT22;51097;51.984;5.650;2023-06-22T14:43:37;26.40;99.90
44823;DHT22;51097;51.984;5.650;2023-06-22T14:46:02;26.30;99.90
44823;DHT22;51097;51.984;5.650;2023-06-22T14:48:28;26.20;99.90
44823;DHT22;51097;51.984;5.650;2023-06-22T14:50:54;26.10;99.90
44823;DHT22;51097;51.984;5.650;2023-06-22T14:53:20;26.00;99.90
44823;DHT22;51097;51.984;5.650;2023-06-22T14:55:45;26.00;99.90
44823;DHT22;51097;51.984;5.650;2023-06-22T14:58:11;25.90;99.90
44823;DHT22;51097;51.984;5.650;2023-06-22T15:00:37;25.90;99.90
44823;DHT22;51097;51.984;5.650;2023-06-22T15:03:04;25.90;99.90
44823;DHT22;51097;51.984;5.650;2023-06-22T15:05:32;25.80;99.90
44823;DHT22;51097;51.984;5.650;2023-06-22T15:07:57;25.80;99.90
44823;DHT22;51097;51.984;5.650;2023-06-22T15:10:24;25.80;99.90
44823;DHT22;51097;51.984;5.650;2023-06-22T15:12:50;25.80;99.90
44823;DHT22;51097;51.984;5.650;2023-06-22T15:15:15;25.70;99.90
44823;DHT22;51097;51.984;5.650;2023-06-22T15:17:41;25.90;99.90
44823;DHT22;51097;51.984;5.650;2023-06-22T15:20:07;25.80;99.90
44823;DHT22;51097;51.984;5.650;2023-06-22T15:22:32;25.70;99.90
44823;DHT22;51097;51.984;5.650;2023-06-22T15:24:58;25.70;99.90
44823;DHT22;51097;51.984;5.650;2023-06-22T15:27:27;25.70;99.90
44823;DHT22;51097;51.984;5.650;2023-06-22T15:29:52;25.90;99.90
44823;DHT22;51097;51.984;5.650;2023-06-22T15:32:18;25.60;99.90